Time;durP1;ratioP1;P1;durP2;ratioP2;P2;SDS_P1;SDS_P2;PMS_P1;PMS_P2;Temp;Humidity;BMP_temperature;BMP_pressure;BME280_temperature;BME280_humidity;BME280_pressure;Samples;Min_cycle;Max_cycle;Signal;HPM_P1;HPM_P2
2021/05/05 00:01:14;;;;;;;6.57;1.65;;;13.80;58.30;;;;;;6157616;23;20448;-74
2021/05/05 00:03:40;;;;;;;5.32;1.20;;;13.70;58.20;;;;;;6167793;23;20017;-74
2021/05/05 00:06:07;;;;;;;7.07;1.33;;;13.70;58.20;;;;;;6167741;23;20350;-74
2021/05/05 00:08:33;;;;;;;4.93;1.38;;;13.70;58.20;;;;;;6168028;23;20017;-74
2021/05/05 00:10:59;;;;;;;5.43;1.65;;;13.80;58.30;;;;;;6168446;23;20514;-74
2021/05/05 00:13:28;;;;;;;3.75;1.23;;;13.70;58.20;;;;;;6167579;23;20085;-74
2021/05/05 00:15:54;;;;;;;6.68;1.45;;;13.70;58.20;;;;;;6168423;23;20041;-74
2021/05/05 00:18:20;;;;;;;5.20;1.40;;;13.70;58.20;;;;;;6167466;23;20024;-74
2021/05/05 00:20:46;;;;;;;5.35;1.45;;;13.70;58.20;;;;;;6157836;23;20017;-74
2021/05/05 00:23:11;;;;;;;9.00;1.60;;;13.70;58.20;;;;;;6167789;23;20084;-74
2021/05/05 00:25:37;;;;;;;4.35;0.82;;;13.70;58.20;;;;;;6167478;23;20021;-74
2021/05/05 00:28:03;;;;;;;3.72;0.98;;;13.70;58.20;;;;;;6168263;23;20013;-74
2021/05/05 00:30:30;;;;;;;2.92;1.00;;;13.70;58.20;;;;;;6168016;23;20025;-74
2021/05/05 00:32:56;;;;;;;4.13;1.20;;;13.70;58.20;;;;;;6168331;23;20053;-74
2021/05/05 00:35:22;;;;;;;6.45;1.20;;;13.70;58.20;;;;;;6167471;23;20281;-74
2021/05/05 00:37:48;;;;;;;5.78;1.30;;;13.70;58.20;;;;;;6167142;23;20415;-74
2021/05/05 00:40:14;;;;;;;4.78;1.48;;;13.70;58.20;;;;;;6167406;23;20024;-74
2021/05/05 00:42:41;;;;;;;4.95;1.20;;;13.70;58.10;;;;;;6164974;23;20040;-74
2021/05/05 00:45:12;;;;;;;4.82;1.20;;;13.70;58.10;;;;;;6167510;23;20020;-74
2021/05/05 00:47:38;;;;;;;4.70;1.27;;;13.70;58.10;;;;;;6157948;23;20023;-74
2021/05/05 00:50:10;;;;;;;6.50;1.85;;;13.70;58.10;;;;;;6167496;23;20088;-74
2021/05/05 00:52:37;;;;;;;5.63;1.15;;;13.70;58.10;;;;;;6159089;23;20028;-74
2021/05/05 00:55:04;;;;;;;5.50;1.38;;;13.70;58.10;;;;;;6168804;23;20013;-74
2021/05/05 00:57:31;;;;;;;5.97;1.35;;;13.70;58.10;;;;;;6160148;23;20091;-74
2021/05/05 00:59:57;;;;;;;5.00;1.25;;;13.70;58.10;;;;;;6168957;23;20306;-74
2021/05/05 01:02:23;;;;;;;3.95;1.08;;;13.70;58.10;;;;;;6169515;23;20033;-74
2021/05/05 01:04:52;;;;;;;4.28;1.20;;;13.70;58.10;;;;;;6159690;23;20045;-74
2021/05/05 01:07:18;;;;;;;6.05;1.80;;;13.70;58.10;;;;;;6160288;23;20014;-74
2021/05/05 01:09:46;;;;;;;5.68;1.10;;;13.70;58.10;;;;;;6169163;23;20041;-74
2021/05/05 01:12:14;;;;;;;5.85;1.27;;;13.70;58.10;;;;;;6159449;23;20024;-74
2021/05/05 01:14:41;;;;;;;5.00;1.17;;;13.70;58.10;;;;;;6169291;23;20275;-74
2021/05/05 01:17:07;;;;;;;8.25;1.40;;;13.70;58.10;;;;;;6169451;23;20109;-74
2021/05/05 01:19:35;;;;;;;6.13;1.60;;;13.70;58.10;;;;;;6169781;23;20014;-74
2021/05/05 01:22:01;;;;;;;4.80;1.15;;;13.70;58.10;;;;;;6158085;23;20044;-74
2021/05/05 01:24:27;;;;;;;4.13;0.95;;;13.70;58.10;;;;;;6168643;23;20089;-74
2021/05/05 01:26:52;;;;;;;4.63;0.95;;;13.70;58.10;;;;;;6142947;23;20450;-74
2021/05/05 01:29:18;;;;;;;6.55;1.38;;;13.70;58.10;;;;;;6169333;23;20013;-74
2021/05/05 01:31:45;;;;;;;4.38;1.30;;;13.60;58.00;;;;;;6143318;23;20041;-74
2021/05/05 01:34:12;;;;;;;4.68;1.83;;;13.70;58.10;;;;;;6159031;23;20032;-74
2021/05/05 01:36:38;;;;;;;6.80;1.42;;;13.70;58.10;;;;;;6160055;23;20037;-74
2021/05/05 01:39:09;;;;;;;5.22;1.13;;;13.70;58.10;;;;;;6158812;23;20022;-74
2021/05/05 01:41:35;;;;;;;5.05;1.10;;;13.70;58.10;;;;;;6169587;23;20013;-74
2021/05/05 01:44:02;;;;;;;5.18;1.05;;;13.70;58.10;;;;;;6158756;23;20407;-74
2021/05/05 01:46:28;;;;;;;6.65;1.25;;;13.70;58.00;;;;;;6162519;23;20092;-74
2021/05/05 01:48:53;;;;;;;5.20;1.48;;;13.60;58.00;;;;;;6168457;23;20013;-74
2021/05/05 01:51:19;;;;;;;6.43;1.42;;;13.60;58.00;;;;;;6169047;23;20014;-74
2021/05/05 01:53:45;;;;;;;7.53;1.38;;;13.60;58.00;;;;;;6159157;23;20014;-74
2021/05/05 01:56:11;;;;;;;5.90;1.30;;;13.60;58.00;;;;;;6169294;23;20391;-74
2021/05/05 01:58:37;;;;;;;4.53;1.13;;;13.60;58.00;;;;;;6169198;23;20009;-74
2021/05/05 02:01:04;;;;;;;5.72;1.38;;;13.60;58.00;;;;;;6168445;23;20411;-74
2021/05/05 02:03:30;;;;;;;6.30;1.52;;;13.60;57.90;;;;;;6168195;23;20029;-74
2021/05/05 02:05:56;;;;;;;2.60;1.25;;;13.60;57.90;;;;;;6142791;23;20018;-74
2021/05/05 02:08:22;;;;;;;5.13;1.35;;;13.60;57.90;;;;;;6168295;23;20016;-74
2021/05/05 02:10:48;;;;;;;5.28;1.30;;;13.60;58.00;;;;;;6168787;23;20306;-74
2021/05/05 02:13:14;;;;;;;5.43;2.00;;;13.60;57.90;;;;;;6168299;23;20010;-74
2021/05/05 02:15:41;;;;;;;5.18;1.50;;;13.60;57.90;;;;;;6168929;23;20009;-74
2021/05/05 02:18:10;;;;;;;3.75;1.35;;;13.60;57.90;;;;;;6159595;23;20264;-74
2021/05/05 02:20:38;;;;;;;5.20;1.20;;;13.60;57.90;;;;;;6168461;23;20406;-74
2021/05/05 02:23:04;;;;;;;6.20;1.00;;;13.60;57.90;;;;;;6168694;23;20434;-74
2021/05/05 02:25:31;;;;;;;5.45;1.45;;;13.60;57.90;;;;;;6168781;23;20017;-74
2021/05/05 02:27:57;;;;;;;4.10;1.40;;;13.60;57.90;;;;;;6168409;23;20010;-74
2021/05/05 02:30:23;;;;;;;5.80;1.58;;;13.60;57.90;;;;;;6169079;23;20010;-74
2021/05/05 02:32:51;;;;;;;5.20;1.58;;;13.60;57.90;;;;;;6158457;23;20014;-74
2021/05/05 02:35:20;;;;;;;5.90;1.60;;;13.60;57.90;;;;;;6143759;23;20017;-74
2021/05/05 02:37:47;;;;;;;8.52;1.52;;;13.60;57.90;;;;;;6158768;23;20017;-74
2021/05/05 02:40:15;;;;;;;5.57;1.52;;;13.60;57.80;;;;;;6168814;23;20136;-74
2021/05/05 02:42:42;;;;;;;5.40;1.63;;;13.60;57.80;;;;;;6168649;23;20037;-74
2021/05/05 02:45:09;;;;;;;6.00;1.42;;;13.60;57.80;;;;;;6167782;23;20020;-74
2021/05/05 02:47:35;;;;;;;4.35;1.70;;;13.60;57.80;;;;;;6168271;23;20020;-74
2021/05/05 02:50:00;;;;;;;4.88;1.20;;;13.60;57.80;;;;;;6168176;23;20137;-74
2021/05/05 02:52:26;;;;;;;6.55;1.55;;;13.60;57.90;;;;;;6167806;23;20018;-74
2021/05/05 02:54:52;;;;;;;4.35;1.25;;;13.60;57.90;;;;;;6167726;23;20053;-74
2021/05/05 02:57:18;;;;;;;5.88;1.25;;;13.60;57.80;;;;;;6158959;23;20169;-74
2021/05/05 02:59:44;;;;;;;6.43;1.23;;;13.60;57.80;;;;;;6168181;23;20045;-74
2021/05/05 03:02:10;;;;;;;7.07;1.55;;;13.60;57.80;;;;;;6158271;23;20482;-74
2021/05/05 03:04:36;;;;;;;7.32;2.15;;;13.50;57.70;;;;;;6168008;23;20013;-74
2021/05/05 03:07:02;;;;;;;5.38;1.15;;;13.60;57.80;;;;;;6168635;23;20060;-74
2021/05/05 03:09:29;;;;;;;7.43;1.50;;;13.60;57.80;;;;;;6159139;23;20080;-74
2021/05/05 03:11:59;;;;;;;6.30;1.52;;;13.60;57.80;;;;;;6167700;23;20059;-74
2021/05/05 03:14:26;;;;;;;5.65;1.45;;;13.60;57.80;;;;;;6168595;23;20020;-74
2021/05/05 03:16:54;;;;;;;6.80;1.45;;;13.60;57.90;;;;;;6158010;23;20342;-75
2021/05/05 03:19:21;;;;;;;5.82;1.20;;;13.60;57.90;;;;;;6167990;23;20021;-74
2021/05/05 03:21:47;;;;;;;6.72;1.58;;;13.50;57.80;;;;;;6168039;23;20021;-74
2021/05/05 03:24:13;;;;;;;6.40;1.80;;;13.50;57.90;;;;;;6142284;23;20046;-74
2021/05/05 03:26:39;;;;;;;7.82;1.73;;;13.60;57.90;;;;;;6142263;23;20021;-74
2021/05/05 03:29:05;;;;;;;8.82;2.10;;;13.60;57.90;;;;;;6158318;23;20014;-74
2021/05/05 03:31:33;;;;;;;6.95;1.50;;;13.50;57.80;;;;;;6167871;23;20511;-73
2021/05/05 03:34:00;;;;;;;5.43;1.33;;;13.50;57.80;;;;;;6168314;23;20368;-74
2021/05/05 03:36:25;;;;;;;4.75;1.45;;;13.50;57.80;;;;;;6167925;23;20251;-74
2021/05/05 03:38:51;;;;;;;6.88;1.40;;;13.50;57.80;;;;;;6158455;23;20070;-74
2021/05/05 03:41:17;;;;;;;5.85;1.77;;;13.50;57.80;;;;;;6167821;23;20013;-74
2021/05/05 03:43:43;;;;;;;8.05;1.80;;;13.50;57.80;;;;;;6167850;23;20009;-74
2021/05/05 03:46:12;;;;;;;5.68;1.52;;;13.50;57.80;;;;;;6157970;23;20089;-74
2021/05/05 03:48:38;;;;;;;4.68;1.35;;;13.50;57.80;;;;;;6168134;23;20029;-74
2021/05/05 03:51:05;;;;;;;6.22;1.40;;;13.50;57.80;;;;;;6167564;23;20089;-74
2021/05/05 03:53:31;;;;;;;6.10;1.40;;;13.50;57.70;;;;;;6168074;23;20013;-74
2021/05/05 03:55:57;;;;;;;8.55;1.63;;;13.50;57.70;;;;;;6167444;23;20075;-74
2021/05/05 03:58:24;;;;;;;4.40;1.48;;;13.50;57.80;;;;;;6158163;23;20435;-74
2021/05/05 04:00:50;;;;;;;5.28;1.95;;;13.50;57.80;;;;;;6157771;23;20048;-74
2021/05/05 04:03:16;;;;;;;5.68;1.40;;;13.50;57.80;;;;;;6167404;23;20018;-74
2021/05/05 04:05:41;;;;;;;8.15;1.60;;;13.50;57.80;;;;;;6157774;23;20013;-74
2021/05/05 04:08:07;;;;;;;6.32;1.55;;;13.50;57.80;;;;;;6158211;23;20032;-74
2021/05/05 04:10:33;;;;;;;5.00;1.50;;;13.50;57.80;;;;;;6167769;23;20060;-74
2021/05/05 04:13:01;;;;;;;4.65;1.52;;;13.50;57.70;;;;;;6167803;23;20139;-74
2021/05/05 04:15:27;;;;;;;7.38;1.70;;;13.50;57.70;;;;;;6157722;23;20010;-74
2021/05/05 04:17:52;;;;;;;5.72;1.63;;;13.50;57.70;;;;;;6168231;23;20010;-74
2021/05/05 04:20:20;;;;;;;6.30;1.38;;;13.50;57.80;;;;;;6167873;23;20291;-74
2021/05/05 04:22:47;;;;;;;5.75;1.67;;;13.50;57.80;;;;;;6167469;23;20084;-74
2021/05/05 04:25:13;;;;;;;7.72;1.83;;;13.50;57.80;;;;;;6168037;23;20016;-74
2021/05/05 04:27:39;;;;;;;7.78;1.70;;;13.50;57.80;;;;;;6168906;23;20092;-74
2021/05/05 04:30:07;;;;;;;6.93;1.50;;;13.50;57.70;;;;;;6169180;23;20020;-74
2021/05/05 04:32:34;;;;;;;7.28;1.98;;;13.50;57.70;;;;;;6169596;23;20013;-74
2021/05/05 04:35:00;;;;;;;8.30;2.20;;;13.50;57.70;;;;;;6169174;23;20021;-74
2021/05/05 04:37:25;;;;;;;7.40;1.58;;;13.50;57.70;;;;;;6169568;23;20017;-74
2021/05/05 04:39:53;;;;;;;6.10;1.52;;;13.50;57.70;;;;;;6159323;23;20018;-74
2021/05/05 04:42:19;;;;;;;5.30;1.30;;;13.50;57.80;;;;;;6159466;23;20064;-74
2021/05/05 04:44:48;;;;;;;5.50;1.50;;;13.50;57.80;;;;;;6159497;23;20021;-74
2021/05/05 04:47:14;;;;;;;6.28;1.45;;;13.50;57.80;;;;;;6160454;23;20388;-74
2021/05/05 04:49:40;;;;;;;4.45;1.20;;;13.50;57.80;;;;;;6159423;23;20028;-74
2021/05/05 04:52:06;;;;;;;4.55;1.48;;;13.50;57.80;;;;;;6169374;23;20024;-74
2021/05/05 04:54:31;;;;;;;6.15;1.58;;;13.50;57.80;;;;;;6169155;23;20049;-74
2021/05/05 04:56:57;;;;;;;6.55;1.85;;;13.50;57.90;;;;;;6169200;23;20013;-74
2021/05/05 04:59:23;;;;;;;5.60;1.35;;;13.50;57.90;;;;;;6159320;23;20013;-74
2021/05/05 05:01:49;;;;;;;6.22;1.40;;;13.50;57.90;;;;;;6159603;23;20084;-74
2021/05/05 05:04:15;;;;;;;3.95;1.15;;;13.50;57.90;;;;;;6159868;23;20010;-74
2021/05/05 05:06:41;;;;;;;6.38;1.27;;;13.50;57.90;;;;;;6169126;23;20437;-74
2021/05/05 05:09:07;;;;;;;7.35;1.33;;;13.50;57.90;;;;;;6169184;23;20010;-74
2021/05/05 05:11:33;;;;;;;6.03;1.45;;;13.50;57.90;;;;;;6159271;23;20018;-74
2021/05/05 05:13:59;;;;;;;5.97;1.42;;;13.50;57.90;;;;;;6160036;23;20077;-74
2021/05/05 05:16:24;;;;;;;3.92;1.55;;;13.50;57.90;;;;;;6169047;23;20422;-74
2021/05/05 05:18:50;;;;;;;6.18;1.60;;;13.50;57.90;;;;;;6168896;23;20036;-74
2021/05/05 05:21:16;;;;;;;5.60;1.35;;;13.50;57.90;;;;;;6168768;23;20010;-74
2021/05/05 05:23:43;;;;;;;4.03;1.40;;;13.50;57.90;;;;;;6168903;23;20090;-74
2021/05/05 05:26:09;;;;;;;6.22;1.88;;;13.50;57.90;;;;;;6169132;23;20013;-74
2021/05/05 05:28:35;;;;;;;8.77;1.70;;;13.50;57.90;;;;;;6168969;23;20281;-74
2021/05/05 05:31:01;;;;;;;5.45;1.48;;;13.50;57.90;;;;;;6169228;23;20025;-74
2021/05/05 05:33:27;;;;;;;6.20;1.60;;;13.50;57.90;;;;;;6168660;23;20071;-74
2021/05/05 05:35:53;;;;;;;5.53;1.33;;;13.50;57.90;;;;;;6158869;23;20013;-74
2021/05/05 05:38:19;;;;;;;4.88;1.40;;;13.50;57.90;;;;;;6168309;23;20013;-74
2021/05/05 05:40:45;;;;;;;8.23;1.90;;;13.40;57.80;;;;;;6158977;23;20024;-74
2021/05/05 05:43:11;;;;;;;5.95;1.70;;;13.50;57.90;;;;;;6158456;23;20014;-74
2021/05/05 05:45:36;;;;;;;6.45;1.88;;;13.50;57.90;;;;;;6166810;23;20093;-74
2021/05/05 05:48:05;;;;;;;5.53;1.90;;;13.40;57.80;;;;;;6168895;23;20371;-74
2021/05/05 05:50:31;;;;;;;5.82;1.35;;;13.50;57.90;;;;;;6169377;23;20017;-74
2021/05/05 05:52:57;;;;;;;6.82;1.70;;;13.50;57.90;;;;;;6168861;23;20009;-74
2021/05/05 05:55:25;;;;;;;9.10;1.75;;;13.50;57.90;;;;;;6168768;23;20016;-74
2021/05/05 05:57:52;;;;;;;8.48;1.50;;;13.50;57.90;;;;;;6169436;23;20017;-74
2021/05/05 06:00:19;;;;;;;4.80;1.70;;;13.50;57.90;;;;;;6168757;23;20410;-74
2021/05/05 06:02:45;;;;;;;5.60;1.30;;;13.40;57.90;;;;;;6168961;23;20013;-74
2021/05/05 06:05:12;;;;;;;7.35;1.65;;;13.50;57.90;;;;;;6168695;23;20080;-74
2021/05/05 06:07:38;;;;;;;4.75;1.27;;;13.40;57.90;;;;;;6168820;23;20024;-74
2021/05/05 06:10:06;;;;;;;5.43;1.98;;;13.50;57.90;;;;;;6158565;23;20014;-74
2021/05/05 06:12:32;;;;;;;6.05;1.45;;;13.50;57.90;;;;;;6169344;23;20013;-74
2021/05/05 06:14:58;;;;;;;5.68;1.98;;;13.50;57.90;;;;;;6168500;23;20009;-74
2021/05/05 06:17:24;;;;;;;5.55;1.35;;;13.40;57.90;;;;;;6168580;23;20017;-74
2021/05/05 06:19:50;;;;;;;7.30;1.42;;;13.40;57.90;;;;;;6158503;23;20116;-74
2021/05/05 06:22:16;;;;;;;6.68;1.65;;;13.50;58.00;;;;;;6168221;23;20335;-74
2021/05/05 06:24:43;;;;;;;7.35;1.65;;;13.50;58.00;;;;;;6168490;23;20025;-74
2021/05/05 06:27:09;;;;;;;6.95;1.40;;;13.50;58.00;;;;;;6169065;23;20017;-74
2021/05/05 06:29:35;;;;;;;7.32;1.40;;;13.50;58.00;;;;;;6168395;23;20010;-74
2021/05/05 06:32:01;;;;;;;6.22;1.30;;;13.40;57.90;;;;;;6168349;23;20013;-74
2021/05/05 06:34:27;;;;;;;4.35;0.82;;;13.50;58.00;;;;;;6168312;23;20012;-74
2021/05/05 06:36:55;;;;;;;4.97;1.58;;;13.50;58.00;;;;;;6168622;23;20024;-75
2021/05/05 06:39:21;;;;;;;6.32;1.73;;;13.50;58.00;;;;;;6168366;23;20014;-74
2021/05/05 06:41:47;;;;;;;7.43;1.40;;;13.50;58.00;;;;;;6168459;23;20085;-74
2021/05/05 06:44:13;;;;;;;6.63;1.45;;;13.50;58.00;;;;;;6158391;23;20041;-75
2021/05/05 06:46:42;;;;;;;5.93;1.45;;;13.50;57.90;;;;;;6161872;23;20017;-74
2021/05/05 06:49:11;;;;;;;4.63;1.33;;;13.50;57.90;;;;;;6158132;23;20021;-74
2021/05/05 06:51:38;;;;;;;4.80;1.23;;;13.50;58.00;;;;;;6159017;23;20048;-74
2021/05/05 06:54:05;;;;;;;5.28;1.55;;;13.50;58.00;;;;;;6142437;23;20009;-74
2021/05/05 06:56:30;;;;;;;6.22;1.40;;;13.50;58.00;;;;;;6168828;23;20024;-74
2021/05/05 06:58:56;;;;;;;3.42;1.40;;;13.50;57.90;;;;;;6168217;23;20009;-74
2021/05/05 07:01:22;;;;;;;6.30;1.45;;;13.50;58.00;;;;;;6158260;23;20307;-74
2021/05/05 07:03:48;;;;;;;4.78;1.25;;;13.50;58.00;;;;;;6168268;23;20024;-74
2021/05/05 07:06:14;;;;;;;6.53;1.70;;;13.50;58.00;;;;;;6158371;23;20351;-74
2021/05/05 07:08:40;;;;;;;5.47;1.65;;;13.50;58.00;;;;;;6167575;23;20072;-74
2021/05/05 07:11:06;;;;;;;7.82;1.63;;;13.50;58.00;;;;;;6168616;23;20071;-74
2021/05/05 07:13:32;;;;;;;3.30;1.30;;;13.50;58.00;;;;;;6168365;23;20018;-74
2021/05/05 07:15:57;;;;;;;6.00;1.55;;;13.60;58.00;;;;;;6167985;23;20481;-74
2021/05/05 07:18:23;;;;;;;5.05;1.48;;;13.60;58.10;;;;;;6168731;23;20013;-74
2021/05/05 07:20:49;;;;;;;4.80;1.20;;;13.60;58.10;;;;;;6166940;23;20035;-74
2021/05/05 07:23:15;;;;;;;4.05;1.17;;;13.60;58.10;;;;;;6168559;23;20014;-74
2021/05/05 07:25:41;;;;;;;5.00;1.48;;;13.50;58.10;;;;;;6158279;23;20049;-74
2021/05/05 07:28:07;;;;;;;4.28;1.20;;;13.50;58.10;;;;;;6142338;23;20017;-74
2021/05/05 07:30:32;;;;;;;6.05;1.38;;;13.50;58.10;;;;;;6167941;23;20009;-74
2021/05/05 07:32:59;;;;;;;3.53;0.82;;;13.60;58.20;;;;;;6167516;23;20028;-74
2021/05/05 07:35:25;;;;;;;4.25;1.30;;;13.60;58.20;;;;;;6131963;23;20414;-74
2021/05/05 07:43:46;;;;;;;4.15;1.15;;;13.60;58.30;;;;;;6157911;23;20020;-75
2021/05/05 07:46:09;;;;;;;5.70;1.30;;;13.60;58.20;;;;;;6157575;23;20018;-75
2021/05/05 07:51:07;;;;;;;5.75;1.15;;;13.60;58.30;;;;;;6167854;23;20021;-75
2021/05/05 07:53:33;;;;;;;5.30;1.38;;;13.50;58.20;;;;;;6167841;23;20013;-74
2021/05/05 07:55:59;;;;;;;6.25;1.33;;;13.50;58.30;;;;;;6167666;23;20410;-74
2021/05/05 07:58:27;;;;;;;3.67;1.10;;;13.50;58.30;;;;;;6168513;23;20100;-74
2021/05/05 08:00:53;;;;;;;3.10;0.88;;;13.60;58.30;;;;;;6167373;23;20291;-74
2021/05/05 08:03:19;;;;;;;4.18;1.05;;;13.60;58.30;;;;;;6170152;23;20024;-74
2021/05/05 08:05:45;;;;;;;3.95;1.25;;;13.60;58.40;;;;;;6170236;23;20017;-75
2021/05/05 08:08:10;;;;;;;3.88;1.50;;;13.60;58.40;;;;;;6144475;23;20013;-74
2021/05/05 08:10:37;;;;;;;3.13;0.65;;;13.60;58.40;;;;;;6170020;23;20414;-74
2021/05/05 08:13:03;;;;;;;4.18;1.15;;;13.60;58.40;;;;;;6170435;23;20084;-74
2021/05/05 08:15:33;;;;;;;4.68;1.02;;;13.60;58.40;;;;;;6169253;23;20040;-74
2021/05/05 08:18:01;;;;;;;3.13;0.98;;;13.60;58.40;;;;;;6143672;23;20013;-74
2021/05/05 08:20:26;;;;;;;7.25;1.25;;;13.60;58.40;;;;;;6169592;23;20411;-75
2021/05/05 08:22:52;;;;;;;5.40;1.20;;;13.60;58.50;;;;;;6169952;23;20088;-74
2021/05/05 08:25:18;;;;;;;3.95;0.70;;;13.60;58.50;;;;;;6169920;23;20021;-74
2021/05/05 08:27:44;;;;;;;3.83;1.08;;;13.60;58.50;;;;;;6143915;23;20009;-74
2021/05/05 08:30:10;;;;;;;4.68;1.27;;;13.60;58.50;;;;;;6169964;23;20009;-74
2021/05/05 08:32:36;;;;;;;5.28;1.23;;;13.60;58.50;;;;;;6169983;23;20020;-74
2021/05/05 08:35:03;;;;;;;3.08;1.00;;;13.60;58.50;;;;;;6170133;23;20017;-74
2021/05/05 08:37:28;;;;;;;4.13;1.20;;;13.60;58.50;;;;;;6169795;23;20429;-74
2021/05/05 08:39:54;;;;;;;4.00;1.30;;;13.60;58.50;;;;;;6169178;23;20009;-74
2021/05/05 08:42:20;;;;;;;3.28;0.85;;;13.60;58.60;;;;;;6169699;23;20307;-75
2021/05/05 08:44:48;;;;;;;4.00;1.08;;;13.60;58.60;;;;;;6169384;23;20076;-74
2021/05/05 08:47:16;;;;;;;3.42;1.17;;;13.60;58.60;;;;;;6160156;23;20020;-74
2021/05/05 08:49:42;;;;;;;5.50;1.05;;;13.60;58.60;;;;;;6169734;23;20009;-74
2021/05/05 08:52:09;;;;;;;4.22;1.00;;;13.60;58.70;;;;;;6159410;23;20033;-74
2021/05/05 08:54:36;;;;;;;4.15;1.08;;;13.60;58.70;;;;;;6169449;23;20009;-74
2021/05/05 08:57:02;;;;;;;2.90;0.70;;;13.60;58.70;;;;;;6169676;23;20023;-74
2021/05/05 08:59:29;;;;;;;5.30;1.30;;;13.60;58.70;;;;;;6169305;23;20013;-74
2021/05/05 09:01:55;;;;;;;4.28;1.00;;;13.60;58.70;;;;;;6169744;23;20009;-75
2021/05/05 09:04:21;;;;;;;3.05;0.98;;;13.60;58.70;;;;;;6169396;23;20009;-74
2021/05/05 09:06:55;;;;;;;4.90;1.15;;;13.60;58.70;;;;;;6169133;23;20024;-75
2021/05/05 09:09:31;;;;;;;3.80;1.23;;;13.60;58.70;;;;;;6159151;23;20028;-75
2021/05/05 09:11:57;;;;;;;3.30;0.98;;;13.60;58.70;;;;;;6160216;23;20024;-75
2021/05/05 09:14:23;;;;;;;4.40;0.77;;;13.60;58.70;;;;;;6169710;23;20013;-75
2021/05/05 09:16:49;;;;;;;3.33;1.08;;;13.60;58.70;;;;;;6169419;23;20096;-74
2021/05/05 09:19:15;;;;;;;4.28;1.10;;;13.60;58.80;;;;;;6169227;23;20037;-74
2021/05/05 09:21:48;;;;;;;6.80;1.30;;;13.60;58.80;;;;;;6169121;23;20017;-75
2021/05/05 09:24:19;;;;;;;3.63;1.05;;;13.60;58.80;;;;;;6169187;23;20006;-74
2021/05/05 09:26:46;;;;;;;4.68;1.25;;;13.60;58.80;;;;;;6169635;23;20414;-74
2021/05/05 09:29:13;;;;;;;5.32;1.33;;;13.60;58.80;;;;;;6169117;23;20020;-74
2021/05/05 09:31:40;;;;;;;2.65;1.20;;;13.60;58.80;;;;;;6169704;23;20036;-74
2021/05/05 09:34:11;;;;;;;3.92;1.13;;;13.60;58.80;;;;;;6169061;23;20017;-74
2021/05/05 09:36:55;;;;;;;3.95;1.27;;;13.60;58.80;;;;;;6159968;23;20064;-75
2021/05/05 09:39:30;;;;;;;3.03;0.90;;;13.60;58.80;;;;;;6168936;23;20044;-74
2021/05/05 09:41:56;;;;;;;5.30;1.10;;;13.60;58.80;;;;;;6168943;23;20013;-74
2021/05/05 09:44:22;;;;;;;5.47;1.00;;;13.60;58.80;;;;;;6169181;23;20427;-74
2021/05/05 09:46:51;;;;;;;4.38;1.13;;;13.60;58.90;;;;;;6161273;23;20020;-75
2021/05/05 09:49:37;;;;;;;4.05;1.20;;;13.70;58.90;;;;;;6158536;23;20407;-75
2021/05/05 09:52:08;;;;;;;3.85;1.10;;;13.70;59.00;;;;;;6169536;23;20414;-74
2021/05/05 09:54:58;;;;;;;4.18;1.40;;;13.60;58.90;;;;;;6158798;23;20009;-74
2021/05/05 09:57:32;;;;;;;3.63;0.80;;;13.70;59.00;;;;;;6158971;23;20025;-74
2021/05/05 10:00:12;;;;;;;4.78;1.40;;;13.70;59.00;;;;;;6169353;23;20013;-74
2021/05/05 10:02:47;;;;;;;5.93;1.35;;;13.70;59.00;;;;;;6168822;23;20029;-74
2021/05/05 10:05:23;;;;;;;5.68;1.27;;;13.70;59.00;;;;;;6168827;23;20410;-74
2021/05/05 10:07:51;;;;;;;5.72;1.17;;;13.70;59.00;;;;;;6168717;23;20028;-75
2021/05/05 10:10:18;;;;;;;3.80;0.98;;;13.70;59.10;;;;;;6168499;23;20092;-74
2021/05/05 10:12:48;;;;;;;5.05;1.58;;;13.70;59.00;;;;;;6168293;23;20485;-75
2021/05/05 10:15:16;;;;;;;4.38;1.17;;;13.70;59.10;;;;;;6158842;23;20017;-74
2021/05/05 10:17:47;;;;;;;8.10;1.98;;;13.70;59.10;;;;;;6168632;23;20338;-75
2021/05/05 10:20:20;;;;;;;6.03;1.80;;;13.70;59.10;;;;;;6168202;23;20017;-75
2021/05/05 10:22:46;;;;;;;5.72;1.40;;;13.70;59.10;;;;;;6168679;23;20421;-74
2021/05/05 10:25:17;;;;;;;4.50;0.85;;;13.70;59.70;;;;;;6168172;23;20041;-74
2021/05/05 10:27:43;;;;;;;5.70;1.40;;;13.70;59.10;;;;;;6142846;23;20308;-75
2021/05/05 10:30:13;;;;;;;4.90;1.23;;;13.70;59.10;;;;;;6142836;23;20017;-75
2021/05/05 10:32:45;;;;;;;4.65;1.55;;;13.70;59.10;;;;;;6153900;23;20013;-75
2021/05/05 10:35:14;;;;;;;4.85;1.42;;;13.70;59.10;;;;;;6167805;23;20036;-75
2021/05/05 10:37:56;;;;;;;4.75;1.15;;;13.70;59.10;;;;;;6169055;23;20040;-75
2021/05/05 10:40:28;;;;;;;5.25;1.38;;;13.70;59.10;;;;;;6168958;23;20009;-75
2021/05/05 10:42:58;;;;;;;4.82;1.25;;;13.70;59.10;;;;;;6158445;23;20009;-74
2021/05/05 10:45:38;;;;;;;2.78;1.23;;;13.70;59.10;;;;;;6166578;23;20014;-75
2021/05/05 10:48:17;;;;;;;6.65;1.83;;;13.70;59.10;;;;;;6169169;23;20010;-75
2021/05/05 10:50:50;;;;;;;7.65;1.60;;;13.70;59.10;;;;;;6168241;23;20013;-75
2021/05/05 10:53:17;;;;;;;5.13;1.38;;;13.80;59.20;;;;;;6168241;23;20036;-74
2021/05/05 10:55:50;;;;;;;5.22;1.35;;;13.70;59.20;;;;;;6168420;23;20044;-74
2021/05/05 10:58:21;;;;;;;7.18;1.50;;;13.70;59.10;;;;;;6168841;23;20013;-75
2021/05/05 11:00:55;;;;;;;4.72;1.38;;;13.70;59.20;;;;;;6168567;23;20010;-74
2021/05/05 11:03:42;;;;;;;6.70;1.33;;;13.80;59.20;;;;;;6168172;23;20121;-74
2021/05/05 11:06:30;;;;;;;4.57;1.20;;;13.80;59.20;;;;;;6158151;23;20438;-75
2021/05/05 11:09:16;;;;;;;4.05;1.38;;;13.80;59.20;;;;;;6167772;23;20324;-75
2021/05/05 11:11:46;;;;;;;6.93;1.52;;;13.80;59.20;;;;;;6158612;23;20037;-74
2021/05/05 11:14:24;;;;;;;6.60;1.80;;;13.80;59.20;;;;;;6168301;23;20021;-75
2021/05/05 11:17:11;;;;;;;8.02;1.80;;;13.80;59.20;;;;;;6168672;23;20018;-75
2021/05/05 11:19:37;;;;;;;4.65;1.20;;;13.80;59.20;;;;;;6168749;23;20064;-74
2021/05/05 11:22:18;;;;;;;7.63;1.75;;;13.80;59.20;;;;;;6168744;23;20013;-75
2021/05/05 11:24:44;;;;;;;7.68;1.80;;;13.80;59.20;;;;;;6168034;23;20006;-75
2021/05/05 11:27:11;;;;;;;6.60;1.70;;;13.80;59.20;;;;;;6167792;23;20013;-75
2021/05/05 11:29:42;;;;;;;8.63;1.90;;;13.80;59.20;;;;;;6168580;23;20017;-74
2021/05/05 11:32:13;;;;;;;6.55;2.20;;;13.80;59.20;;;;;;6158604;23;20014;-74
2021/05/05 11:34:42;;;;;;;7.53;1.70;;;13.80;59.80;;;;;;6168378;23;20013;-75
2021/05/05 11:37:25;;;;;;;4.90;1.75;;;13.80;59.20;;;;;;6167860;23;20367;-75
2021/05/05 11:39:56;;;;;;;7.90;1.53;;;13.80;59.10;;;;;;6168537;23;20028;-74
2021/05/05 11:42:25;;;;;;;6.28;1.50;;;13.80;59.20;;;;;;6167905;23;20010;-75
2021/05/05 11:44:56;;;;;;;10.32;2.05;;;13.80;59.10;;;;;;6167877;23;20009;-75
2021/05/05 11:47:26;;;;;;;8.38;2.08;;;13.80;59.10;;;;;;6158450;23;20088;-75
2021/05/05 11:49:53;;;;;;;5.53;1.77;;;13.80;59.10;;;;;;6167874;23;20009;-75
2021/05/05 11:52:30;;;;;;;11.05;2.22;;;13.80;59.10;;;;;;6132322;23;20028;-75
2021/05/05 11:54:57;;;;;;;5.47;1.73;;;13.80;59.10;;;;;;6168211;23;20017;-75
2021/05/05 11:57:29;;;;;;;7.78;2.33;;;13.80;59.10;;;;;;6157913;23;20022;-75
2021/05/05 11:59:56;;;;;;;6.63;1.80;;;13.80;59.10;;;;;;6167731;23;20017;-75
2021/05/05 12:02:22;;;;;;;6.97;2.00;;;13.80;59.10;;;;;;6168440;23;20013;-75
2021/05/05 12:04:50;;;;;;;5.18;2.00;;;13.80;59.10;;;;;;6167437;23;20080;-75
2021/05/05 12:07:18;;;;;;;7.80;2.38;;;13.80;59.10;;;;;;6168377;23;20025;-75
2021/05/05 12:09:44;;;;;;;8.75;1.95;;;13.80;59.10;;;;;;6168207;23;20414;-75
2021/05/05 12:12:27;;;;;;;6.90;1.48;;;13.80;59.10;;;;;;6167898;23;20010;-75
2021/05/05 12:15:03;;;;;;;6.55;1.90;;;13.80;59.10;;;;;;6167967;23;20084;-75
2021/05/05 12:17:43;;;;;;;7.22;1.85;;;13.90;59.20;;;;;;6167735;23;20013;-75
2021/05/05 12:20:14;;;;;;;6.30;1.77;;;13.80;59.10;;;;;;6157802;23;20022;-75
2021/05/05 12:22:57;;;;;;;6.03;1.48;;;13.80;59.10;;;;;;6158070;23;20037;-74
2021/05/05 12:25:23;;;;;;;6.80;2.45;;;13.80;59.10;;;;;;6168452;23;20403;-75
2021/05/05 12:28:07;;;;;;;6.05;1.90;;;13.80;59.10;;;;;;6167704;23;20013;-74
2021/05/05 12:30:53;;;;;;;9.25;2.63;;;13.80;59.10;;;;;;6168164;23;20020;-75
2021/05/05 12:33:41;;;;;;;8.98;2.55;;;13.90;59.10;;;;;;6168328;23;20093;-75
2021/05/05 12:36:12;;;;;;;8.38;2.10;;;13.90;59.10;;;;;;6141845;23;20029;-75
2021/05/05 12:38:42;;;;;;;10.02;2.33;;;13.80;59.10;;;;;;6167793;23;20009;-75
2021/05/05 12:41:11;;;;;;;7.07;2.17;;;13.90;59.10;;;;;;6158801;23;20021;-75
2021/05/05 12:43:37;;;;;;;9.98;2.28;;;13.80;59.00;;;;;;6161356;23;20014;-74
2021/05/05 12:46:04;;;;;;;7.60;1.88;;;13.80;59.00;;;;;;6163538;23;20017;-74
2021/05/05 12:48:38;;;;;;;10.30;2.03;;;13.80;59.00;;;;;;6169043;23;20013;-75
2021/05/05 12:51:06;;;;;;;;;;;13.90;59.00;;;;;;6170185;23;20081;-75
2021/05/05 12:54:00;;;;;;;8.80;2.20;;;13.80;58.90;;;;;;6169625;23;19940;-75
2021/05/05 12:56:42;;;;;;;4.72;2.08;;;13.80;59.00;;;;;;6160299;23;20017;-75
2021/05/05 12:59:10;;;;;;;10.15;2.58;;;13.90;59.00;;;;;;6169647;23;20014;-75
2021/05/05 13:01:36;;;;;;;7.97;1.88;;;13.80;58.90;;;;;;6169351;23;20048;-75